Westview, KY (40178)

9:12 AM CDT on July 25, 2014 (GMT -0500)
Eveleigh Road (KKYLEITC8) Elev 670 ft | 37.58 °N, 86.34 °W | Change Station

Current weather conditions updated 6 seconds ago

Clear
Clear
75.0 °F
Feels Like 77 °F
N
1.6
Wind Variable Wind from East
Gusts 3.8 mph

Today is forecast to be nearly the same temperature as yesterday.

Today
High -- | Low -- °F
--% Chance of Precip.
Yesterday
High -- | Low -- °F
Precip. -- in
5:43 AM 8:00 PM
Waning Crescent, 2% visible
Pressure 30.09 in
Visibility 10.0 miles
Clouds Clear
Heat Index 77 °F
Dew Point 62 °F
Humidity 65%
Rainfall 0.00 in
Snow Depth Not available.
UV 4 out of 12
Pollen 3.40 out of 12
Ozone Good
PM2.5 Moderate
Flu Activity Not available.
METAR KFTK 251358Z AUTO 09005KT 10SM CLR 20/15 A3009 RMK AO2 SLP188 T02010147

More Conditions Fewer Conditions

Pressure 30.09 in
Visibility 10.0 miles
Clouds Clear
Heat Index 77 °F
Dew Point 62 °F
Humidity 65%
Rainfall 0.00 in
Snow Depth Not available.
UV 4 out of 12
Pollen 3.40 out of 12
Ozone Good
PM2.5 Moderate
Flu Activity Not available.
METAR KFTK 251358Z AUTO 09005KT 10SM CLR 20/15 A3009 RMK AO2 SLP188 T02010147

More Conditions Fewer Conditions

10-Day Weather Forecast

Almanac

Astronomy

Jul. 25, 2014 Rise Set
Actual Time 5:43 AM CDT 8:00 PM CDT
Civil Twilight 5:14 AM CDT 8:29 PM CDT
Nautical Twilight 4:37 AM CDT 9:05 PM CDT
Astronomical Twilight 3:57 AM CDT 9:45 PM CDT
Moon 4:41 AM CDT 6:57 PM CDT
Length of Visible Light 15h 15m
Length of Day
14h 16m
Tomorrow will be 1m 37s shorter.
Waning Crescent, 2% of the Moon is Illuminated
Today
Waning Crescent
Jul 26
New
Aug 3
First Quarter
Aug 10
Full
Aug 17
Last Quarter

Today's Extremes

State Highs State Lows

Community

WunderPhotos

Upload Photos

1,737,340 photos uploaded!

Nearby

Air Quality

  Air Quality AQ Index Pollutant
Yesterday Good
PM10
Yesterday Good
OZONE
Current Moderate
PM2.5
Current Good
OZONE
Friday Moderate
OZONE
Friday Good
PM2.5
Saturday Moderate
PM2.5
Saturday Good
OZONE
Sunday Moderate
PM2.5
Sunday Good
OZONE
Monday Good
PM2.5
Monday Good
OZONE

Snow Depth

Station Depth Elevation
No new snow has been reported.

Earthquake Activity

City Distance Mag. Time & Date
No recent earthquake activity has been reported nearby.
Minimum magnitude displayed is 2.5.

Coastal Water Temperatures

Place Temperature
No Stations Reporting

Nearby Weather Stations

Station Location Temp. Heat Index Dew Point Humidity Wind Precip. Elev Updated Type
Eveleigh Road, Leitchfield, KY 75.0 °F 77 °F 62 °F 65% East  at  1.6 mph 0.00 in / hr 670 ft 9:12 AM CDT Rapid Fire
Wandering Meadows, Vine Grove, KY 72.0 °F 75 °F 62 °F 70% NE  at  2.7 mph - / hr 719 ft 10:08 AM EDT Normal
Lavista Estates, Rineyville, KY 71.6 °F 74 °F 62 °F 72% South  at  3.2 mph - / hr 817 ft 9:59 AM EDT Normal
nolin lake, Clarkson, KY 72.9 °F 75 °F 62 °F 70% SSE  at  2.2 mph - / hr 643 ft 9:03 AM CDT Normal

Show More Stations Show Fewer Stations